createdAt,value
2022-09-28T00:01:20.313Z,99644.00
2022-09-28T00:04:21.797Z,99654.41
2022-09-28T00:07:23.329Z,99645.72
2022-09-28T00:10:24.759Z,99649.16
2022-09-28T00:13:26.572Z,99649.22
2022-09-28T00:16:31.369Z,99650.06
2022-09-28T00:19:32.898Z,99649.97
2022-09-28T00:22:34.355Z,99657.84
2022-09-28T00:25:35.790Z,99657.78
2022-09-28T00:28:37.236Z,99662.03
2022-09-28T00:31:38.797Z,99655.91
2022-09-28T00:34:42.421Z,99656.66
2022-09-28T00:37:43.872Z,99643.53
2022-09-28T00:40:45.491Z,99642.53
2022-09-28T00:43:47.007Z,99637.38
2022-09-28T00:46:52.793Z,99649.59
2022-09-28T00:49:59.789Z,99643.47
2022-09-28T00:53:12.732Z,99632.16
2022-09-28T00:56:18.734Z,99633.94
2022-09-28T00:59:20.831Z,99629.59
2022-09-28T01:02:22.510Z,99627.88
2022-09-28T01:05:24.512Z,99633.94
2022-09-28T01:08:28.120Z,99627.00
2022-09-28T01:11:34.917Z,99634.03
2022-09-28T01:14:40.097Z,99627.19
2022-09-28T01:17:55.094Z,99627.88
2022-09-28T01:21:18.638Z,99623.38
2022-09-28T01:24:41.980Z,99630.34
2022-09-28T01:27:54.400Z,99629.28
2022-09-28T01:31:12.750Z,99624.03
2022-09-28T01:34:20.840Z,99639.00
2022-09-28T01:37:29.115Z,99646.75
2022-09-28T01:40:32.417Z,99643.31
2022-09-28T01:43:40.085Z,99649.38
2022-09-28T01:46:46.141Z,99650.34
2022-09-28T01:49:56.521Z,99656.31
2022-09-28T01:53:01.987Z,99645.91
2022-09-28T01:56:32.729Z,99639.78
2022-09-28T01:59:37.080Z,99649.22
2022-09-28T02:03:06.235Z,99652.81
2022-09-28T02:06:34.529Z,99651.00
2022-09-28T02:09:42.120Z,99653.56
2022-09-28T02:12:48.333Z,99652.72
2022-09-28T02:16:13.694Z,99650.91
2022-09-28T02:19:24.436Z,99638.88
2022-09-28T02:22:59.272Z,99621.25
2022-09-28T02:26:08.978Z,99629.28
2022-09-28T02:29:11.461Z,99637.09
2022-09-28T02:32:13.139Z,99638.00
2022-09-28T02:35:17.768Z,99633.78
2022-09-28T02:38:19.440Z,99633.88
2022-09-28T02:41:55.482Z,99640.66
2022-09-28T02:45:08.860Z,99644.03
2022-09-28T02:48:52.248Z,99640.44
2022-09-28T02:52:38.897Z,99649.94
2022-09-28T02:55:48.436Z,99636.69
2022-09-28T02:59:07.743Z,99640.97
2022-09-28T03:02:27.580Z,99643.59
2022-09-28T03:05:44.916Z,99636.69
2022-09-28T03:09:12.382Z,99643.75
2022-09-28T03:12:18.616Z,99645.59
2022-09-28T03:15:25.028Z,99657.72
2022-09-28T03:18:27.968Z,99663.66
2022-09-28T03:21:29.544Z,99673.22
2022-09-28T03:24:31.035Z,99666.09
2022-09-28T03:27:32.737Z,99661.00
2022-09-28T03:30:34.272Z,99654.88
2022-09-28T03:33:35.748Z,99643.47
2022-09-28T03:36:37.262Z,99634.78
2022-09-28T03:39:38.738Z,99634.88
2022-09-28T03:42:40.331Z,99630.63
2022-09-28T03:45:42.324Z,99629.84
2022-09-28T03:48:43.785Z,99635.09
2022-09-28T03:51:46.655Z,99635.19
2022-09-28T03:54:49.342Z,99637.00
2022-09-28T03:57:54.627Z,99634.47
2022-09-28T04:01:05.255Z,99639.78
2022-09-28T04:04:06.889Z,99642.53
2022-09-28T04:07:09.409Z,99641.75
2022-09-28T04:10:10.949Z,99641.00
2022-09-28T04:13:14.049Z,99637.72
2022-09-28T04:16:16.668Z,99633.59
2022-09-28T04:19:24.443Z,99641.84
2022-09-28T04:22:45.570Z,99644.75
2022-09-28T04:25:51.833Z,99647.53
2022-09-28T04:28:54.297Z,99646.03
2022-09-28T04:31:56.097Z,99649.63
2022-09-28T04:35:05.760Z,99649.47
2022-09-28T04:38:09.791Z,99655.38
2022-09-28T04:41:11.421Z,99662.81
2022-09-28T04:44:14.360Z,99660.75
2022-09-28T04:47:15.805Z,99646.53
2022-09-28T04:50:35.775Z,99661.13
2022-09-28T04:53:55.470Z,99660.38
2022-09-28T04:56:57.665Z,99668.03
2022-09-28T04:59:59.356Z,99658.38
2022-09-28T05:03:01.150Z,99667.88
2022-09-28T05:06:28.674Z,99663.47
2022-09-28T05:09:38.416Z,99670.50
2022-09-28T05:12:40.333Z,99671.56
2022-09-28T05:15:41.886Z,99669.25
2022-09-28T05:18:43.553Z,99663.56
2022-09-28T05:21:46.252Z,99664.00
2022-09-28T05:24:47.762Z,99667.00
2022-09-28T05:27:57.332Z,99663.66
2022-09-28T05:31:25.056Z,99669.00
2022-09-28T05:34:45.895Z,99666.38
2022-09-28T05:37:53.576Z,99674.38
2022-09-28T05:40:55.946Z,99673.75
2022-09-28T05:43:57.634Z,99671.69
2022-09-28T05:46:59.113Z,99674.69
2022-09-28T05:50:00.549Z,99676.56
2022-09-28T05:53:05.048Z,99670.75
2022-09-28T05:56:06.533Z,99669.31
2022-09-28T05:59:10.375Z,99666.34
2022-09-28T06:02:12.027Z,99664.22
2022-09-28T06:05:13.898Z,99656.19
2022-09-28T06:08:15.515Z,99656.75
2022-09-28T06:11:20.553Z,99639.28
2022-09-28T06:14:22.096Z,99631.34
2022-09-28T06:17:23.496Z,99640.91
2022-09-28T06:20:44.931Z,99644.53
2022-09-28T06:23:49.579Z,99647.44
2022-09-28T06:26:52.797Z,99654.69
2022-09-28T06:29:55.587Z,99654.03
2022-09-28T06:32:58.648Z,99661.03
2022-09-28T06:36:01.471Z,99668.72
2022-09-28T06:39:03.121Z,99666.91
2022-09-28T06:42:04.710Z,99679.06
2022-09-28T06:45:27.454Z,99691.44
2022-09-28T06:48:44.761Z,99689.13
2022-09-28T06:51:49.978Z,99683.47
2022-09-28T06:54:58.649Z,99689.59
2022-09-28T06:58:14.400Z,99692.94
2022-09-28T07:01:16.351Z,99700.66
2022-09-28T07:04:42.096Z,99701.09
2022-09-28T07:08:03.653Z,99696.53
2022-09-28T07:11:17.163Z,99700.13
2022-09-28T07:14:43.353Z,99700.78
2022-09-28T07:17:58.896Z,99700.16
2022-09-28T07:21:02.457Z,99701.19
2022-09-28T07:24:05.755Z,99694.47
2022-09-28T07:27:28.940Z,99692.25
2022-09-28T07:30:46.213Z,99708.47
2022-09-28T07:33:52.489Z,99704.34
2022-09-28T07:37:03.153Z,99713.66
2022-09-28T07:40:06.530Z,99716.22
2022-09-28T07:43:11.565Z,99712.34
2022-09-28T07:46:13.297Z,99715.69
2022-09-28T07:49:27.112Z,99726.25
2022-09-28T07:52:48.452Z,99725.31
2022-09-28T07:56:01.244Z,99738.97
2022-09-28T07:59:15.698Z,99733.06
2022-09-28T08:02:46.169Z,99733.66
2022-09-28T08:05:56.940Z,99732.41
2022-09-28T08:08:58.753Z,99731.75
2022-09-28T08:12:12.105Z,99742.59
2022-09-28T08:15:20.682Z,99737.09
2022-09-28T08:18:27.535Z,99746.75
2022-09-28T08:21:29.018Z,99744.75
2022-09-28T08:24:31.191Z,99756.81
2022-09-28T08:27:33.301Z,99751.97
2022-09-28T08:30:34.973Z,99759.00
2022-09-28T08:34:05.729Z,99749.97
2022-09-28T08:37:25.708Z,99757.44
2022-09-28T08:41:03.726Z,99762.41
2022-09-28T08:44:39.542Z,99756.59
2022-09-28T08:48:02.276Z,99768.78
2022-09-28T08:51:28.009Z,99770.22
2022-09-28T08:54:58.445Z,99774.94
2022-09-28T08:58:20.947Z,99780.44
2022-09-28T09:01:25.781Z,99779.03
2022-09-28T09:04:27.546Z,99787.41
2022-09-28T09:08:12.944Z,99788.50
2022-09-28T09:11:53.817Z,99789.75
2022-09-28T09:15:05.067Z,99793.66
2022-09-28T09:18:31.216Z,99786.75
2022-09-28T09:21:42.494Z,99791.88
2022-09-28T09:25:00.588Z,99786.31
2022-09-28T09:28:28.100Z,99793.59
2022-09-28T09:31:41.940Z,99783.19
2022-09-28T09:34:46.508Z,99786.03
2022-09-28T09:38:15.045Z,99785.72
2022-09-28T09:42:02.907Z,99797.97
2022-09-28T09:46:06.059Z,99792.09
2022-09-28T09:49:34.420Z,99787.25
2022-09-28T09:52:45.713Z,99789.66
2022-09-28T09:55:52.722Z,99784.97
2022-09-28T09:59:08.558Z,99788.50
2022-09-28T10:02:35.222Z,99784.75
2022-09-28T10:05:47.729Z,99787.53
2022-09-28T10:09:05.633Z,99802.00
2022-09-28T10:12:28.641Z,99796.91
2022-09-28T10:15:50.455Z,99786.56
2022-09-28T10:19:01.166Z,99800.09
2022-09-28T10:22:25.688Z,99802.03
2022-09-28T10:25:31.831Z,99803.94
2022-09-28T10:28:47.291Z,99804.78
2022-09-28T10:31:51.611Z,99800.28
2022-09-28T10:35:27.569Z,99797.34
2022-09-28T10:38:33.531Z,99798.81
2022-09-28T10:41:52.015Z,99798.84
2022-09-28T10:45:02.540Z,99795.88
2022-09-28T10:48:22.203Z,99797.25
2022-09-28T10:51:46.581Z,99797.03
2022-09-28T10:54:54.833Z,99796.91
2022-09-28T10:57:59.089Z,99798.69
2022-09-28T11:01:12.757Z,99787.13
2022-09-28T11:04:20.927Z,99793.78
2022-09-28T11:07:26.733Z,99788.53
2022-09-28T11:10:31.112Z,99789.78
2022-09-28T11:13:51.397Z,99791.47
2022-09-28T11:17:23.268Z,99795.22
2022-09-28T11:20:27.459Z,99794.72
2022-09-28T11:23:33.677Z,99795.78
2022-09-28T11:26:54.282Z,99797.19
2022-09-28T11:30:01.660Z,99787.91
2022-09-28T11:33:33.029Z,99798.91
2022-09-28T11:37:17.526Z,99789.22
2022-09-28T11:40:51.676Z,99793.91
2022-09-28T11:44:11.185Z,99799.09
2022-09-28T11:47:33.088Z,99804.41
2022-09-28T11:50:43.921Z,99801.53
2022-09-28T11:53:50.019Z,99797.50
2022-09-28T11:56:53.085Z,99795.19
2022-09-28T12:00:01.889Z,99791.88
2022-09-28T12:03:15.985Z,99794.63
2022-09-28T12:06:46.036Z,99796.16
2022-09-28T12:09:57.937Z,99806.06
2022-09-28T12:13:04.413Z,99808.38
2022-09-28T12:16:38.802Z,99808.75
2022-09-28T12:19:43.770Z,99806.84
2022-09-28T12:22:58.457Z,99809.19
2022-09-28T12:26:10.412Z,99804.53
2022-09-28T12:29:16.379Z,99813.56
2022-09-28T12:32:32.597Z,99814.34
2022-09-28T12:35:47.996Z,99806.31
2022-09-28T12:39:18.680Z,99803.53
2022-09-28T12:42:40.948Z,99799.16
2022-09-28T12:46:11.111Z,99789.50
2022-09-28T12:53:03.259Z,99799.22
2022-09-28T12:56:21.832Z,99797.97
2022-09-28T12:59:31.263Z,99803.03
2022-09-28T13:02:41.959Z,99817.63
2022-09-28T13:06:14.770Z,99826.75
2022-09-28T13:09:21.096Z,99825.41
2022-09-28T13:12:28.543Z,99834.72
2022-09-28T13:15:43.255Z,99834.50
2022-09-28T13:19:10.371Z,99841.72
2022-09-28T13:22:35.836Z,99842.88
2022-09-28T13:25:43.428Z,99849.38
2022-09-28T13:28:46.609Z,99852.13
2022-09-28T13:31:56.849Z,99860.84
2022-09-28T13:34:59.578Z,99856.56
2022-09-28T13:38:16.391Z,99857.09
2022-09-28T13:41:22.309Z,99858.38
2022-09-28T13:44:37.657Z,99871.50
2022-09-28T13:47:45.057Z,99860.88
2022-09-28T13:51:04.991Z,99861.72
2022-09-28T13:54:15.426Z,99867.44
2022-09-28T13:57:31.326Z,99856.75
2022-09-28T14:01:04.674Z,99858.72
2022-09-28T14:04:17.146Z,99861.56
2022-09-28T14:07:34.076Z,99854.47
2022-09-28T14:10:55.838Z,99849.41
2022-09-28T14:14:25.873Z,99852.63
2022-09-28T14:17:27.252Z,99863.44
2022-09-28T14:20:30.677Z,99861.66
2022-09-28T14:23:59.014Z,99867.41
2022-09-28T14:27:07.208Z,99869.00
2022-09-28T14:30:11.672Z,99868.47
2022-09-28T14:33:18.985Z,99865.16
2022-09-28T14:36:34.288Z,99873.72
2022-09-28T14:39:37.799Z,99874.09
2022-09-28T14:42:39.264Z,99872.66
2022-09-28T14:45:40.741Z,99870.97
2022-09-28T14:48:52.074Z,99868.28
2022-09-28T14:51:53.437Z,99871.69
2022-09-28T14:54:56.312Z,99865.31
2022-09-28T14:57:59.052Z,99873.63
2022-09-28T15:01:11.785Z,99875.00
2022-09-28T15:04:14.600Z,99883.03
2022-09-28T15:07:25.442Z,99878.06
2022-09-28T15:10:44.495Z,99882.78
2022-09-28T15:13:45.957Z,99880.66
2022-09-28T15:16:47.426Z,99888.28
2022-09-28T15:20:10.683Z,99885.22
2022-09-28T15:23:33.572Z,99882.72
2022-09-28T15:26:35.005Z,99887.31
2022-09-28T15:29:36.453Z,99884.22
2022-09-28T15:32:37.930Z,99875.16
2022-09-28T15:35:42.165Z,99881.97
2022-09-28T15:38:51.521Z,99878.09
2022-09-28T15:41:53.219Z,99873.69
2022-09-28T15:45:24.200Z,99871.91
2022-09-28T15:49:02.598Z,99874.03
2022-09-28T15:52:45.912Z,99879.03
2022-09-28T15:55:49.921Z,99873.34
2022-09-28T15:59:18.931Z,99886.63
2022-09-28T16:02:21.129Z,99877.78
2022-09-28T16:05:31.357Z,99883.53
2022-09-28T16:08:32.802Z,99887.31
2022-09-28T16:11:39.354Z,99883.84
2022-09-28T16:14:40.790Z,99882.84
2022-09-28T16:17:42.619Z,99889.25
2022-09-28T16:20:46.105Z,99885.66
2022-09-28T16:23:53.657Z,99886.13
2022-09-28T16:27:16.725Z,99883.91
2022-09-28T16:30:23.036Z,99880.81
2022-09-28T16:33:40.442Z,99890.78
2022-09-28T16:36:45.190Z,99898.91
2022-09-28T16:39:46.622Z,99893.69
2022-09-28T16:42:49.484Z,99897.34
2022-09-28T16:45:51.017Z,99899.50
2022-09-28T16:48:52.524Z,99899.72
2022-09-28T16:51:54.124Z,99900.19
2022-09-28T16:54:55.572Z,99907.09
2022-09-28T16:57:57.086Z,99909.22
2022-09-28T17:00:59.644Z,99911.44
2022-09-28T17:04:01.316Z,99915.38
2022-09-28T17:07:02.739Z,99918.47
2022-09-28T17:10:14.817Z,99925.94
2022-09-28T17:13:16.318Z,99919.44
2022-09-28T17:16:28.266Z,99920.53
2022-09-28T17:19:38.405Z,99913.13
2022-09-28T17:22:39.832Z,99920.09
2022-09-28T17:25:42.153Z,99917.81
2022-09-28T17:28:43.580Z,99921.81
2022-09-28T17:31:46.322Z,99922.09
2022-09-28T17:34:55.817Z,99925.22
2022-09-28T17:38:12.252Z,99932.63
2022-09-28T17:41:20.256Z,99932.16
2022-09-28T17:44:22.214Z,99931.50
2022-09-28T17:47:23.635Z,99943.88
2022-09-28T17:50:28.861Z,99936.97
2022-09-28T17:53:30.256Z,99938.22
2022-09-28T17:56:32.643Z,99937.66
2022-09-28T17:59:34.193Z,99936.25
2022-09-28T18:02:35.644Z,99932.09
2022-09-28T18:05:37.348Z,99938.66
2022-09-28T18:08:39.047Z,99937.22
2022-09-28T18:11:44.213Z,99939.31
2022-09-28T18:14:45.640Z,99937.78
2022-09-28T18:17:47.111Z,99943.09
2022-09-28T18:20:48.750Z,99942.19
2022-09-28T18:23:50.649Z,99941.59
2022-09-28T18:26:52.068Z,99941.88
2022-09-28T18:29:53.513Z,99949.59
2022-09-28T18:32:55.002Z,99940.09
2022-09-28T18:35:56.457Z,99935.13
2022-09-28T18:38:59.973Z,99938.72
2022-09-28T18:42:01.488Z,99940.72
2022-09-28T18:45:04.609Z,99941.81
2022-09-28T18:48:06.422Z,99941.06
2022-09-28T18:51:09.206Z,99930.69
2022-09-28T18:54:10.670Z,99933.31
2022-09-28T18:57:12.761Z,99938.44
2022-09-28T19:00:14.667Z,99930.44
2022-09-28T19:03:16.194Z,99935.28
2022-09-28T19:06:17.721Z,99940.34
2022-09-28T19:09:21.368Z,99933.25
2022-09-28T19:12:23.078Z,99937.16
2022-09-28T19:15:24.492Z,99944.91
2022-09-28T19:18:30.418Z,99947.50
2022-09-28T19:21:32.044Z,99946.59
2022-09-28T19:24:33.456Z,99948.22
2022-09-28T19:27:35.122Z,99948.19
2022-09-28T19:30:36.598Z,99954.28
2022-09-28T19:33:39.179Z,99955.78
2022-09-28T19:36:40.707Z,99951.97
2022-09-28T19:39:42.164Z,99952.59
2022-09-28T19:42:43.617Z,99954.13
2022-09-28T19:45:45.065Z,99950.50
2022-09-28T19:48:47.978Z,99949.47
2022-09-28T19:52:14.246Z,99960.63
2022-09-28T19:55:16.086Z,99960.50
2022-09-28T19:58:17.501Z,99961.28
2022-09-28T20:01:18.994Z,99966.47
2022-09-28T20:04:20.605Z,99969.09
2022-09-28T20:07:22.204Z,99967.34
2022-09-28T20:10:23.660Z,99965.47
2022-09-28T20:13:34.426Z,99967.19
2022-09-28T20:16:36.591Z,99975.78
2022-09-28T20:19:38.002Z,99974.03
2022-09-28T20:22:39.411Z,99984.38
2022-09-28T20:25:40.856Z,99983.41
2022-09-28T20:28:43.104Z,99984.31
2022-09-28T20:31:44.596Z,99988.75
2022-09-28T20:34:45.987Z,99988.88
2022-09-28T20:37:47.390Z,99985.47
2022-09-28T20:40:48.926Z,99979.63
2022-09-28T20:43:52.634Z,99978.78
2022-09-28T20:46:54.114Z,99979.81
2022-09-28T20:49:55.569Z,99972.28
2022-09-28T20:52:57.005Z,99967.31
2022-09-28T20:55:59.148Z,99973.41
2022-09-28T20:59:00.576Z,99977.16
2022-09-28T21:02:02.065Z,99968.53
2022-09-28T21:05:03.775Z,99966.81
2022-09-28T21:08:05.193Z,99971.97
2022-09-28T21:11:06.862Z,99970.94
2022-09-28T21:14:08.455Z,99976.94
2022-09-28T21:17:10.280Z,99970.88
2022-09-28T21:20:11.726Z,99967.25
2022-09-28T21:23:14.295Z,99973.50
2022-09-28T21:26:21.540Z,99971.91
2022-09-28T21:29:22.952Z,99972.88
2022-09-28T21:32:24.400Z,99973.09
2022-09-28T21:35:25.831Z,99977.78
2022-09-28T21:38:27.560Z,99981.59
2022-09-28T21:41:30.100Z,99982.63
2022-09-28T21:44:31.561Z,99986.44
2022-09-28T21:47:32.976Z,99981.75
2022-09-28T21:50:34.363Z,99979.63
2022-09-28T21:53:37.333Z,99987.78
2022-09-28T21:56:38.799Z,99987.00
2022-09-28T21:59:40.214Z,99986.91
2022-09-28T22:02:42.253Z,99991.19
2022-09-28T22:05:44.362Z,99993.97
2022-09-28T22:08:46.850Z,100003.72
2022-09-28T22:11:48.260Z,100010.81
2022-09-28T22:14:49.705Z,100009.16
2022-09-28T22:17:51.113Z,100010.41
2022-09-28T22:21:12.412Z,100010.72
2022-09-28T22:24:13.864Z,100010.13
2022-09-28T22:27:15.296Z,100009.50
2022-09-28T22:30:16.853Z,100010.34
2022-09-28T22:33:18.306Z,100011.31
2022-09-28T22:36:20.199Z,100009.81
2022-09-28T22:39:21.691Z,100011.44
2022-09-28T22:42:23.177Z,100019.91
2022-09-28T22:45:24.601Z,100015.47
2022-09-28T22:48:26.063Z,100013.75
2022-09-28T22:51:29.244Z,100014.53
2022-09-28T22:54:30.740Z,100010.91
2022-09-28T22:57:32.179Z,100014.53
2022-09-28T23:00:33.601Z,100018.50
2022-09-28T23:03:35.484Z,100018.41
2022-09-28T23:06:36.920Z,100017.75
2022-09-28T23:09:38.329Z,100019.47
2022-09-28T23:12:39.738Z,100020.25
2022-09-28T23:15:41.480Z,100026.16
2022-09-28T23:18:42.980Z,100020.00
2022-09-28T23:21:44.417Z,100017.63
2022-09-28T23:24:45.874Z,100023.84
2022-09-28T23:27:48.955Z,100024.84
2022-09-28T23:30:51.027Z,100025.84
2022-09-28T23:33:59.971Z,100023.28
2022-09-28T23:37:01.378Z,100025.91
2022-09-28T23:40:04.257Z,100030.09
2022-09-28T23:43:06.269Z,100025.25
2022-09-28T23:46:07.802Z,100024.47
2022-09-28T23:49:09.343Z,100027.97
2022-09-28T23:52:10.770Z,100022.19
2022-09-28T23:55:12.219Z,100015.34
2022-09-28T23:58:13.665Z,100014.69
